createdAt,value
2022-10-05T00:01:46.820Z,60.79
2022-10-05T00:04:52.621Z,60.93
2022-10-05T00:07:56.983Z,60.95
2022-10-05T00:10:59.811Z,60.73
2022-10-05T00:14:07.358Z,60.36
2022-10-05T00:17:13.827Z,60.51
2022-10-05T00:20:22.561Z,60.86
2022-10-05T00:23:27.651Z,60.77
2022-10-05T00:26:32.915Z,60.57
2022-10-05T00:29:35.490Z,60.50
2022-10-05T00:32:38.306Z,60.40
2022-10-05T00:35:41.211Z,60.39
2022-10-05T00:38:44.258Z,60.08
2022-10-05T00:41:55.283Z,59.99
2022-10-05T00:45:01.929Z,59.80
2022-10-05T00:48:12.526Z,59.52
2022-10-05T00:51:20.967Z,57.89
2022-10-05T00:54:29.437Z,58.48
2022-10-05T00:57:37.583Z,60.58
2022-10-05T01:00:43.834Z,61.00
2022-10-05T01:03:50.836Z,60.76
2022-10-05T01:06:59.570Z,63.22
2022-10-05T01:10:06.030Z,69.91
2022-10-05T01:13:15.106Z,71.29
2022-10-05T01:16:22.067Z,69.19
2022-10-05T01:19:39.371Z,67.28
2022-10-05T01:22:51.825Z,65.54
2022-10-05T01:26:03.521Z,64.33
2022-10-05T01:29:08.778Z,63.48
2022-10-05T01:32:14.873Z,62.56
2022-10-05T01:35:23.983Z,61.81
2022-10-05T01:38:33.882Z,61.11
2022-10-05T01:41:40.787Z,60.63
2022-10-05T01:44:47.380Z,60.15
2022-10-05T01:47:53.340Z,59.45
2022-10-05T01:51:00.797Z,57.38
2022-10-05T01:54:10.005Z,58.94
2022-10-05T01:57:15.944Z,59.75
2022-10-05T02:00:19.485Z,60.77
2022-10-05T02:03:24.963Z,62.22
2022-10-05T02:06:30.255Z,70.12
2022-10-05T02:09:34.405Z,70.51
2022-10-05T02:12:41.039Z,68.72
2022-10-05T02:15:45.557Z,65.74
2022-10-05T02:18:50.472Z,65.42
2022-10-05T02:21:55.392Z,64.76
2022-10-05T02:25:02.864Z,63.46
2022-10-05T02:28:09.655Z,63.05
2022-10-05T02:31:15.070Z,62.40
2022-10-05T02:34:22.556Z,61.45
2022-10-05T02:37:28.793Z,61.13
2022-10-05T02:40:37.814Z,61.00
2022-10-05T02:43:45.781Z,60.63
2022-10-05T02:46:57.156Z,60.39
2022-10-05T02:50:06.872Z,60.01
2022-10-05T02:53:17.583Z,58.16
2022-10-05T02:56:26.372Z,57.64
2022-10-05T02:59:33.682Z,58.41
2022-10-05T03:02:41.963Z,62.12
2022-10-05T03:05:48.059Z,67.31
2022-10-05T03:08:57.638Z,67.62
2022-10-05T03:12:07.549Z,66.05
2022-10-05T03:15:15.977Z,64.66
2022-10-05T03:18:28.545Z,63.67
2022-10-05T03:21:39.688Z,62.72
2022-10-05T03:24:52.107Z,62.22
2022-10-05T03:27:58.468Z,61.82
2022-10-05T03:31:03.365Z,61.27
2022-10-05T03:34:10.582Z,61.07
2022-10-05T03:37:16.462Z,59.19
2022-10-05T03:40:24.900Z,58.28
2022-10-05T03:43:41.445Z,59.23
2022-10-05T03:46:53.445Z,60.11
2022-10-05T03:50:06.047Z,60.44
2022-10-05T03:53:14.924Z,60.94
2022-10-05T03:56:23.994Z,61.39
2022-10-05T03:59:32.373Z,65.59
2022-10-05T04:02:40.139Z,73.65
2022-10-05T04:05:45.957Z,73.09
2022-10-05T04:08:52.192Z,70.09
2022-10-05T04:12:02.006Z,68.13
2022-10-05T04:15:17.993Z,66.49
2022-10-05T04:18:25.198Z,65.19
2022-10-05T04:21:29.921Z,64.01
2022-10-05T04:24:36.398Z,62.83
2022-10-05T04:27:41.785Z,62.14
2022-10-05T04:30:46.156Z,61.81
2022-10-05T04:33:54.960Z,61.29
2022-10-05T04:37:02.458Z,60.81
2022-10-05T04:40:15.077Z,60.40
2022-10-05T04:43:20.238Z,60.21
2022-10-05T04:46:29.497Z,59.84
2022-10-05T04:49:41.380Z,59.77
2022-10-05T04:52:51.682Z,59.76
2022-10-05T04:55:58.098Z,59.89
2022-10-05T04:59:16.836Z,59.86
2022-10-05T05:02:23.637Z,59.56
2022-10-05T05:05:31.927Z,59.59
2022-10-05T05:08:41.898Z,59.66
2022-10-05T05:11:52.110Z,59.32
2022-10-05T05:15:06.914Z,56.84
2022-10-05T05:18:34.284Z,56.92
2022-10-05T05:21:42.965Z,61.97
2022-10-05T05:24:52.879Z,67.22
2022-10-05T05:27:57.758Z,66.26
2022-10-05T05:31:06.196Z,65.08
2022-10-05T05:34:17.611Z,63.50
2022-10-05T05:37:25.824Z,62.47
2022-10-05T05:40:32.513Z,62.09
2022-10-05T05:43:42.803Z,61.36
2022-10-05T05:47:03.383Z,60.47
2022-10-05T05:50:19.845Z,60.35
2022-10-05T05:53:24.980Z,60.04
2022-10-05T05:56:32.298Z,59.76
2022-10-05T05:59:40.041Z,58.11
2022-10-05T06:02:45.730Z,56.53
2022-10-05T06:05:51.618Z,60.59
2022-10-05T06:08:56.660Z,61.37
2022-10-05T06:12:28.860Z,67.33
2022-10-05T06:15:34.508Z,67.46
2022-10-05T06:18:39.462Z,65.39
2022-10-05T06:21:44.439Z,63.30
2022-10-05T06:24:51.601Z,61.88
2022-10-05T06:28:08.930Z,61.18
2022-10-05T06:31:19.713Z,60.22
2022-10-05T06:34:34.869Z,57.63
2022-10-05T06:37:46.434Z,57.60
2022-10-05T06:40:57.385Z,59.07
2022-10-05T06:44:02.137Z,65.75
2022-10-05T06:47:22.264Z,65.24
2022-10-05T06:50:52.740Z,63.35
2022-10-05T06:54:27.438Z,61.87
2022-10-05T06:57:40.985Z,60.15
2022-10-05T07:00:49.216Z,60.17
2022-10-05T07:03:59.308Z,62.98
2022-10-05T07:07:03.092Z,63.42
2022-10-05T07:10:16.685Z,61.70
2022-10-05T07:13:37.771Z,59.89
2022-10-05T07:16:52.590Z,60.83
2022-10-05T07:20:00.400Z,64.00
2022-10-05T07:23:19.457Z,62.96
2022-10-05T07:26:27.462Z,60.82
2022-10-05T07:29:34.159Z,59.45
2022-10-05T07:32:39.422Z,59.26
2022-10-05T07:36:06.729Z,61.47
2022-10-05T07:39:13.916Z,63.05
2022-10-05T07:42:22.392Z,61.11
2022-10-05T07:45:28.277Z,59.18
2022-10-05T07:48:37.060Z,58.61
2022-10-05T07:51:41.358Z,60.18
2022-10-05T07:54:53.490Z,64.65
2022-10-05T07:58:02.171Z,63.34
2022-10-05T08:01:11.484Z,60.69
2022-10-05T08:04:17.602Z,58.92
2022-10-05T08:07:20.230Z,58.15
2022-10-05T08:10:31.198Z,59.86
2022-10-05T08:13:39.069Z,63.49
2022-10-05T08:16:42.047Z,62.60
2022-10-05T08:19:47.356Z,60.10
2022-10-05T08:22:54.000Z,58.77
2022-10-05T08:26:12.564Z,59.31
2022-10-05T08:29:18.906Z,61.21
2022-10-05T08:32:24.052Z,63.50
2022-10-05T08:35:33.452Z,61.08
2022-10-05T08:38:36.135Z,57.83
2022-10-05T08:41:55.957Z,59.68
2022-10-05T08:45:20.941Z,60.81
2022-10-05T08:48:33.622Z,62.55
2022-10-05T08:51:53.380Z,62.20
2022-10-05T08:55:13.998Z,58.08
2022-10-05T08:58:34.743Z,58.69
2022-10-05T09:01:46.163Z,60.92
2022-10-05T09:04:58.745Z,61.75
2022-10-05T09:08:12.964Z,61.39
2022-10-05T09:11:21.209Z,58.87
2022-10-05T09:14:38.683Z,57.98
2022-10-05T09:17:51.145Z,59.80
2022-10-05T09:20:54.666Z,60.71
2022-10-05T09:24:07.952Z,61.49
2022-10-05T09:27:13.907Z,61.56
2022-10-05T09:30:20.099Z,61.62
2022-10-05T09:33:55.152Z,61.09
2022-10-05T09:37:17.206Z,61.51
2022-10-05T09:40:35.921Z,61.89
2022-10-05T09:43:55.119Z,59.88
2022-10-05T09:47:11.770Z,57.68
2022-10-05T09:50:27.668Z,58.52
2022-10-05T09:53:44.187Z,59.35
2022-10-05T09:57:03.443Z,59.88
2022-10-05T10:00:23.539Z,59.87
2022-10-05T10:03:42.506Z,59.79
2022-10-05T10:06:54.808Z,59.42
2022-10-05T10:10:12.897Z,59.15
2022-10-05T10:13:23.090Z,59.33
2022-10-05T10:16:32.272Z,58.80
2022-10-05T10:19:51.900Z,58.52
2022-10-05T10:23:10.400Z,58.91
2022-10-05T10:26:34.560Z,59.70
2022-10-05T10:29:47.834Z,57.56
2022-10-05T10:33:02.551Z,57.93
2022-10-05T10:36:12.975Z,56.15
2022-10-05T10:39:19.857Z,56.47
2022-10-05T10:42:33.434Z,56.46
2022-10-05T10:45:46.322Z,56.08
2022-10-05T10:48:57.249Z,56.89
2022-10-05T10:52:10.061Z,56.17
2022-10-05T10:55:22.714Z,56.29
2022-10-05T10:58:48.770Z,56.20
2022-10-05T11:02:06.084Z,55.54
2022-10-05T11:05:15.640Z,55.53
2022-10-05T11:08:37.318Z,54.09
2022-10-05T11:11:58.178Z,54.33
2022-10-05T11:15:06.423Z,53.56
2022-10-05T11:18:15.391Z,53.66
2022-10-05T11:21:24.996Z,53.02
2022-10-05T11:24:47.963Z,53.14
2022-10-05T11:27:59.279Z,52.96
2022-10-05T11:31:24.907Z,51.45
2022-10-05T11:34:43.193Z,51.12
2022-10-05T11:38:03.511Z,52.40
2022-10-05T11:41:17.569Z,53.17
2022-10-05T11:44:34.201Z,52.80
2022-10-05T11:47:41.079Z,52.81
2022-10-05T11:50:48.534Z,53.30
2022-10-05T11:53:57.118Z,53.63
2022-10-05T11:57:10.640Z,53.78
2022-10-05T12:00:15.999Z,53.71
2022-10-05T12:03:28.550Z,53.71
2022-10-05T12:06:38.278Z,53.22
2022-10-05T12:10:04.931Z,53.37
2022-10-05T12:13:18.672Z,53.72
2022-10-05T12:16:24.303Z,53.45
2022-10-05T12:19:31.398Z,53.37
2022-10-05T12:22:36.092Z,53.34
2022-10-05T12:25:41.324Z,53.22
2022-10-05T12:28:46.954Z,53.12
2022-10-05T12:31:55.488Z,52.76
2022-10-05T12:35:02.608Z,52.54
2022-10-05T12:38:11.368Z,52.51
2022-10-05T12:41:18.120Z,52.61
2022-10-05T12:44:25.867Z,52.40
2022-10-05T12:47:32.423Z,52.49
2022-10-05T12:50:36.102Z,52.62
2022-10-05T12:53:47.837Z,52.53
2022-10-05T12:56:53.293Z,52.23
2022-10-05T13:00:00.915Z,52.43
2022-10-05T13:03:08.844Z,52.74
2022-10-05T13:06:17.228Z,53.11
2022-10-05T13:09:23.673Z,53.37
2022-10-05T13:12:35.477Z,53.62
2022-10-05T13:15:43.882Z,53.69
2022-10-05T13:18:58.280Z,53.71
2022-10-05T13:22:04.876Z,53.57
2022-10-05T13:25:17.235Z,53.99
2022-10-05T13:28:21.875Z,54.16
2022-10-05T13:31:27.269Z,54.42
2022-10-05T13:34:34.579Z,54.52
2022-10-05T13:37:40.745Z,54.55
2022-10-05T13:40:45.857Z,54.58
2022-10-05T13:43:52.519Z,54.87
2022-10-05T13:47:00.501Z,54.81
2022-10-05T13:50:05.678Z,54.73
2022-10-05T13:53:12.362Z,54.60
2022-10-05T13:56:17.876Z,54.75
2022-10-05T13:59:24.993Z,54.91
2022-10-05T14:02:29.273Z,55.20
2022-10-05T14:05:32.037Z,55.28
2022-10-05T14:08:35.790Z,55.33
2022-10-05T14:11:47.909Z,55.61
2022-10-05T14:14:52.926Z,55.85
2022-10-05T14:17:56.176Z,55.94
2022-10-05T14:21:03.251Z,56.05
2022-10-05T14:24:32.033Z,56.30
2022-10-05T14:27:49.597Z,56.42
2022-10-05T14:30:59.200Z,56.50
2022-10-05T14:34:29.328Z,56.67
2022-10-05T14:37:42.739Z,56.79
2022-10-05T14:40:45.656Z,56.86
2022-10-05T14:43:52.873Z,56.90
2022-10-05T14:46:58.244Z,57.03
2022-10-05T14:50:13.383Z,57.20
2022-10-05T14:53:17.154Z,57.20
2022-10-05T14:56:28.274Z,57.24
2022-10-05T14:59:53.886Z,57.39
2022-10-05T15:03:08.621Z,57.39
2022-10-05T15:06:15.546Z,57.60
2022-10-05T15:09:32.023Z,57.78
2022-10-05T15:12:37.640Z,57.83
2022-10-05T15:15:44.248Z,57.69
2022-10-05T15:18:50.988Z,57.38
2022-10-05T15:22:00.371Z,56.69
2022-10-05T15:25:12.786Z,55.58
2022-10-05T15:28:20.778Z,54.55
2022-10-05T15:31:33.258Z,55.15
2022-10-05T15:34:39.862Z,55.05
2022-10-05T15:37:43.543Z,54.84
2022-10-05T15:40:49.086Z,54.35
2022-10-05T15:43:58.207Z,54.46
2022-10-05T15:47:03.636Z,54.79
2022-10-05T15:50:14.316Z,55.07
2022-10-05T15:53:20.742Z,55.35
2022-10-05T15:56:26.655Z,55.59
2022-10-05T15:59:35.012Z,55.87
2022-10-05T16:02:41.051Z,56.13
2022-10-05T16:06:06.137Z,56.52
2022-10-05T16:09:13.983Z,56.95
2022-10-05T16:12:22.006Z,57.24
2022-10-05T16:15:27.971Z,57.56
2022-10-05T16:18:40.404Z,57.82
2022-10-05T16:21:50.934Z,58.07
2022-10-05T16:25:01.810Z,58.31
2022-10-05T16:28:11.306Z,58.62
2022-10-05T16:31:22.909Z,58.89
2022-10-05T16:34:34.197Z,59.20
2022-10-05T16:37:41.536Z,59.49
2022-10-05T16:40:50.046Z,59.84
2022-10-05T16:43:57.681Z,60.18
2022-10-05T16:47:04.040Z,60.44
2022-10-05T16:50:16.820Z,60.73
2022-10-05T16:53:22.066Z,61.03
2022-10-05T16:56:27.554Z,61.31
2022-10-05T16:59:44.447Z,61.54
2022-10-05T17:02:54.259Z,61.85
2022-10-05T17:06:07.666Z,62.19
2022-10-05T17:09:22.921Z,62.60
2022-10-05T17:12:33.172Z,69.26
2022-10-05T17:15:41.116Z,74.48
2022-10-05T17:19:14.546Z,71.25
2022-10-05T17:22:23.697Z,68.39
2022-10-05T17:25:34.177Z,66.15
2022-10-05T17:28:39.158Z,63.64
2022-10-05T17:32:01.175Z,61.22
2022-10-05T17:35:18.520Z,57.93
2022-10-05T17:38:23.254Z,56.57
2022-10-05T17:41:27.604Z,56.64
2022-10-05T17:44:30.153Z,57.36
2022-10-05T17:47:49.711Z,58.13
2022-10-05T17:51:12.839Z,58.41
2022-10-05T17:54:37.982Z,59.79
2022-10-05T17:57:41.318Z,61.12
2022-10-05T18:01:13.527Z,61.11
2022-10-05T18:04:25.811Z,61.95
2022-10-05T18:07:28.666Z,64.22
2022-10-05T18:10:31.938Z,70.27
2022-10-05T18:13:40.932Z,68.24
2022-10-05T18:16:59.973Z,67.21
2022-10-05T18:20:12.620Z,65.61
2022-10-05T18:23:35.159Z,64.38
2022-10-05T18:26:42.952Z,62.10
2022-10-05T18:30:04.770Z,60.88
2022-10-05T18:33:20.401Z,57.15
2022-10-05T18:36:37.908Z,56.09
2022-10-05T18:39:45.496Z,56.15
2022-10-05T18:42:53.355Z,56.68
2022-10-05T18:46:03.534Z,58.28
2022-10-05T18:49:18.996Z,58.12
2022-10-05T18:52:26.902Z,59.66
2022-10-05T18:55:33.059Z,59.58
2022-10-05T18:58:41.358Z,60.96
2022-10-05T19:01:51.574Z,61.35
2022-10-05T19:05:04.618Z,62.25
2022-10-05T19:08:10.468Z,68.07
2022-10-05T19:11:17.708Z,70.43
2022-10-05T19:14:24.659Z,69.30
2022-10-05T19:17:31.838Z,66.14
2022-10-05T19:20:37.405Z,63.68
2022-10-05T19:23:51.219Z,61.67
2022-10-05T19:27:00.615Z,60.26
2022-10-05T19:30:11.477Z,57.17
2022-10-05T19:33:25.350Z,56.22
2022-10-05T19:36:40.536Z,56.20
2022-10-05T19:39:47.412Z,56.82
2022-10-05T19:42:59.477Z,57.61
2022-10-05T19:46:19.203Z,57.99
2022-10-05T19:49:42.452Z,59.67
2022-10-05T19:52:49.790Z,61.08
2022-10-05T19:55:54.788Z,66.97
2022-10-05T19:58:59.000Z,70.25
2022-10-05T20:02:03.596Z,68.78
2022-10-05T20:05:07.286Z,65.94
2022-10-05T20:08:14.693Z,63.75
2022-10-05T20:11:18.128Z,62.06
2022-10-05T20:14:28.252Z,61.34
2022-10-05T20:17:49.359Z,59.58
2022-10-05T20:20:52.015Z,56.61
2022-10-05T20:24:06.408Z,57.22
2022-10-05T20:27:28.901Z,58.17
2022-10-05T20:30:33.334Z,58.65
2022-10-05T20:33:35.958Z,60.72
2022-10-05T20:36:39.848Z,64.85
2022-10-05T20:39:42.488Z,68.50
2022-10-05T20:42:45.181Z,66.67
2022-10-05T20:45:47.786Z,65.92
2022-10-05T20:48:51.973Z,64.39
2022-10-05T20:51:55.249Z,62.71
2022-10-05T20:54:58.314Z,62.28
2022-10-05T20:58:00.675Z,61.02
2022-10-05T21:01:15.872Z,60.24
2022-10-05T21:04:19.538Z,59.71
2022-10-05T21:07:22.803Z,56.88
2022-10-05T21:10:25.489Z,56.37
2022-10-05T21:13:28.194Z,56.77
2022-10-05T21:16:30.985Z,58.36
2022-10-05T21:19:37.711Z,58.53
2022-10-05T21:22:40.460Z,60.80
2022-10-05T21:25:44.848Z,68.04
2022-10-05T21:28:47.318Z,69.29
2022-10-05T21:31:50.104Z,67.41
2022-10-05T21:34:52.609Z,65.13
2022-10-05T21:37:55.381Z,63.19
2022-10-05T21:40:57.985Z,61.35
2022-10-05T21:44:00.623Z,60.69
2022-10-05T21:47:03.691Z,59.82
2022-10-05T21:50:08.055Z,57.54
2022-10-05T21:53:13.180Z,57.05
2022-10-05T21:56:17.503Z,57.74
2022-10-05T21:59:21.457Z,58.01
2022-10-05T22:02:24.017Z,58.63
2022-10-05T22:05:26.696Z,61.22
2022-10-05T22:08:30.794Z,67.28
2022-10-05T22:11:33.730Z,70.26
2022-10-05T22:14:36.235Z,68.69
2022-10-05T22:17:39.856Z,66.74
2022-10-05T22:20:42.478Z,64.91
2022-10-05T22:23:45.812Z,63.71
2022-10-05T22:26:50.810Z,62.90
2022-10-05T22:29:54.033Z,61.72
2022-10-05T22:32:56.601Z,60.92
2022-10-05T22:35:59.936Z,60.53
2022-10-05T22:39:02.554Z,60.10
2022-10-05T22:42:05.472Z,59.31
2022-10-05T22:45:08.866Z,57.25
2022-10-05T22:48:11.554Z,57.61
2022-10-05T22:51:14.136Z,58.39
2022-10-05T22:54:16.745Z,58.99
2022-10-05T22:57:19.394Z,59.41
2022-10-05T23:00:27.582Z,60.74
2022-10-05T23:03:30.620Z,61.73
2022-10-05T23:06:33.265Z,69.43
2022-10-05T23:09:35.824Z,70.50
2022-10-05T23:12:38.382Z,70.31
2022-10-05T23:15:41.897Z,68.61
2022-10-05T23:18:46.241Z,67.23
2022-10-05T23:21:48.850Z,66.04
2022-10-05T23:24:51.656Z,65.16
2022-10-05T23:27:54.131Z,64.12
2022-10-05T23:31:00.475Z,63.38
2022-10-05T23:34:03.229Z,61.66
2022-10-05T23:37:08.870Z,62.14
2022-10-05T23:40:14.912Z,61.46
2022-10-05T23:43:17.769Z,59.36
2022-10-05T23:46:20.563Z,57.87
2022-10-05T23:49:23.357Z,59.03
2022-10-05T23:52:25.924Z,59.54
2022-10-05T23:55:28.396Z,59.82
2022-10-05T23:58:31.532Z,64.84
